createdAt,value
2018-01-18T00:00:47.935Z,75.10
2018-01-18T00:03:14.285Z,74.46
2018-01-18T00:05:40.673Z,74.43
2018-01-18T00:08:07.121Z,74.57
2018-01-18T00:10:33.436Z,73.41
2018-01-18T00:12:59.928Z,73.17
2018-01-18T00:15:26.405Z,72.32
2018-01-18T00:17:52.824Z,72.18
2018-01-18T00:20:19.288Z,71.04
2018-01-18T00:22:45.670Z,70.33
2018-01-18T00:25:12.078Z,71.19
2018-01-18T00:27:38.468Z,70.10
2018-01-18T00:30:04.868Z,69.49
2018-01-18T00:32:31.269Z,68.88
2018-01-18T00:34:57.753Z,68.25
2018-01-18T00:37:24.120Z,68.21
2018-01-18T00:39:50.533Z,67.62
2018-01-18T00:42:16.946Z,67.58
2018-01-18T00:44:43.345Z,67.12
2018-01-18T00:47:09.769Z,66.81
2018-01-18T00:49:36.133Z,66.50
2018-01-18T00:52:02.469Z,67.64
2018-01-18T00:54:28.857Z,67.06
2018-01-18T00:56:55.184Z,66.23
2018-01-18T00:59:21.534Z,67.39
2018-01-18T01:01:47.892Z,65.48
2018-01-18T01:04:14.374Z,65.91
2018-01-18T01:06:40.731Z,65.43
2018-01-18T01:09:07.189Z,65.35
2018-01-18T01:11:33.536Z,66.76
2018-01-18T01:13:59.884Z,64.97
2018-01-18T01:16:26.313Z,64.78
2018-01-18T01:18:52.645Z,65.55
2018-01-18T01:21:19.009Z,66.04
2018-01-18T01:23:45.459Z,64.77
2018-01-18T01:26:11.796Z,64.37
2018-01-18T01:28:38.129Z,64.11
2018-01-18T01:31:04.460Z,63.38
2018-01-18T01:33:30.813Z,64.07
2018-01-18T01:35:57.218Z,66.08
2018-01-18T01:38:23.545Z,64.80
2018-01-18T01:40:49.973Z,63.08
2018-01-18T01:43:16.394Z,64.05
2018-01-18T01:45:42.784Z,63.89
2018-01-18T01:48:09.108Z,64.19
2018-01-18T01:50:35.500Z,67.84
2018-01-18T01:53:01.865Z,64.01
2018-01-18T01:55:28.244Z,63.49
2018-01-18T01:57:54.621Z,63.94
2018-01-18T02:00:21.045Z,63.72
2018-01-18T02:02:47.570Z,63.60
2018-01-18T02:05:13.925Z,63.38
2018-01-18T02:07:40.396Z,63.75
2018-01-18T02:10:06.736Z,62.93
2018-01-18T02:12:33.101Z,63.54
2018-01-18T02:14:59.452Z,63.93
2018-01-18T02:17:25.838Z,63.60
2018-01-18T02:19:52.224Z,63.49
2018-01-18T02:22:18.568Z,62.67
2018-01-18T02:24:44.969Z,63.62
2018-01-18T02:27:11.342Z,63.22
2018-01-18T02:29:37.697Z,62.99
2018-01-18T02:32:04.098Z,62.66
2018-01-18T02:34:30.517Z,62.76
2018-01-18T02:36:56.869Z,62.58
2018-01-18T02:39:23.229Z,62.43
2018-01-18T02:41:49.568Z,61.61
2018-01-18T02:44:15.940Z,61.27
2018-01-18T02:46:42.297Z,62.56
2018-01-18T02:49:08.686Z,61.01
2018-01-18T02:51:35.042Z,61.35
2018-01-18T02:54:01.497Z,62.12
2018-01-18T02:56:27.892Z,61.38
2018-01-18T02:58:54.244Z,60.70
2018-01-18T03:01:20.617Z,61.39
2018-01-18T03:03:47.005Z,60.97
2018-01-18T03:06:13.434Z,60.74
2018-01-18T03:08:39.765Z,61.83
2018-01-18T03:11:06.129Z,60.67
2018-01-18T03:13:32.577Z,61.07
2018-01-18T03:15:58.948Z,61.86
2018-01-18T03:18:25.393Z,60.84
2018-01-18T03:20:51.783Z,59.55
2018-01-18T03:23:18.126Z,59.67
2018-01-18T03:25:44.488Z,60.68
2018-01-18T03:28:10.864Z,61.32
2018-01-18T03:30:37.202Z,61.67
2018-01-18T03:33:03.576Z,59.29
2018-01-18T03:35:30.045Z,58.13
2018-01-18T03:37:56.472Z,58.79
2018-01-18T03:40:22.812Z,60.04
2018-01-18T03:42:49.172Z,58.60
2018-01-18T03:45:15.553Z,60.43
2018-01-18T03:47:42.085Z,57.55
2018-01-18T03:50:08.477Z,57.19
2018-01-18T03:52:34.840Z,57.87
2018-01-18T03:55:01.273Z,57.31
2018-01-18T03:57:27.681Z,57.09
2018-01-18T03:59:54.011Z,57.11
2018-01-18T04:02:20.444Z,57.18
2018-01-18T04:04:46.927Z,58.22
2018-01-18T04:07:13.393Z,56.64
2018-01-18T04:09:39.797Z,57.14
2018-01-18T04:12:06.189Z,54.41
2018-01-18T04:14:32.621Z,56.03
2018-01-18T04:16:58.961Z,59.55
2018-01-18T04:19:25.351Z,55.33
2018-01-18T04:21:51.762Z,58.31
2018-01-18T04:24:18.242Z,55.77
2018-01-18T04:26:44.600Z,55.38
2018-01-18T04:29:10.956Z,56.02
2018-01-18T04:31:37.285Z,56.81
2018-01-18T04:34:03.636Z,57.83
2018-01-18T04:36:30.113Z,58.71
2018-01-18T04:38:56.452Z,55.95
2018-01-18T04:41:22.841Z,54.82
2018-01-18T04:43:49.190Z,55.22
2018-01-18T04:46:15.562Z,57.09
2018-01-18T04:48:41.944Z,59.81
2018-01-18T04:51:08.312Z,54.67
2018-01-18T04:53:34.651Z,55.27
2018-01-18T04:56:01.076Z,55.73
2018-01-18T04:58:27.457Z,54.73
2018-01-18T05:00:53.841Z,56.23
2018-01-18T05:03:20.200Z,57.57
2018-01-18T05:05:46.568Z,59.28
2018-01-18T05:08:13.025Z,55.20
2018-01-18T05:10:39.377Z,53.45
2018-01-18T05:13:05.764Z,53.72
2018-01-18T05:15:32.092Z,54.84
2018-01-18T05:17:58.501Z,55.47
2018-01-18T05:20:24.853Z,55.75
2018-01-18T05:22:51.179Z,56.56
2018-01-18T05:25:17.565Z,54.61
2018-01-18T05:27:43.968Z,54.31
2018-01-18T05:30:10.328Z,56.02
2018-01-18T05:32:36.769Z,55.88
2018-01-18T05:35:03.175Z,53.84
2018-01-18T05:37:29.537Z,55.90
2018-01-18T05:39:55.926Z,54.40
2018-01-18T05:42:22.490Z,54.28
2018-01-18T05:44:48.853Z,54.49
2018-01-18T05:47:15.302Z,53.40
2018-01-18T05:49:41.663Z,53.76
2018-01-18T05:52:08.208Z,53.60
2018-01-18T05:54:34.961Z,56.51
2018-01-18T05:57:01.409Z,57.81
2018-01-18T05:59:27.788Z,53.12
2018-01-18T06:01:54.239Z,54.75
2018-01-18T06:04:20.552Z,53.76
2018-01-18T06:06:46.875Z,53.09
2018-01-18T06:09:13.501Z,53.47
2018-01-18T06:11:39.912Z,53.05
2018-01-18T06:14:06.276Z,56.36
2018-01-18T06:16:32.705Z,52.49
2018-01-18T06:18:59.044Z,56.07
2018-01-18T06:21:25.400Z,55.64
2018-01-18T06:23:51.785Z,56.92
2018-01-18T06:26:18.204Z,53.28
2018-01-18T06:28:44.629Z,54.53
2018-01-18T06:31:11.012Z,59.57
2018-01-18T06:33:37.385Z,59.19
2018-01-18T06:36:03.949Z,57.01
2018-01-18T06:38:30.365Z,52.76
2018-01-18T06:40:56.736Z,53.35
2018-01-18T06:43:23.237Z,54.83
2018-01-18T06:45:49.580Z,55.71
2018-01-18T06:48:16.016Z,56.92
2018-01-18T06:50:42.337Z,54.64
2018-01-18T06:53:08.678Z,55.88
2018-01-18T06:55:35.084Z,53.00
2018-01-18T06:58:01.424Z,53.45
2018-01-18T07:00:27.761Z,52.00
2018-01-18T07:02:54.251Z,53.34
2018-01-18T07:05:20.593Z,55.15
2018-01-18T07:07:46.925Z,52.25
2018-01-18T07:10:13.289Z,55.02
2018-01-18T07:12:39.660Z,54.69
2018-01-18T07:15:06.041Z,54.01
2018-01-18T07:17:32.553Z,52.89
2018-01-18T07:19:59.033Z,53.30
2018-01-18T07:22:25.372Z,58.54
2018-01-18T07:24:51.752Z,53.47
2018-01-18T07:27:18.280Z,55.09
2018-01-18T07:29:44.601Z,56.03
2018-01-18T07:32:11.000Z,53.14
2018-01-18T07:34:37.348Z,55.41
2018-01-18T07:37:03.721Z,56.90
2018-01-18T07:39:30.093Z,53.29
2018-01-18T07:41:56.441Z,54.49
2018-01-18T07:44:22.952Z,52.32
2018-01-18T07:46:49.353Z,53.93
2018-01-18T07:49:15.870Z,52.75
2018-01-18T07:51:42.221Z,52.88
2018-01-18T07:54:08.592Z,54.05
2018-01-18T07:56:34.965Z,51.19
2018-01-18T07:59:01.305Z,52.37
2018-01-18T08:01:27.668Z,52.81
2018-01-18T08:04:00.012Z,55.07
2018-01-18T08:06:26.385Z,51.19
2018-01-18T08:08:52.920Z,51.86
2018-01-18T08:11:19.234Z,54.03
2018-01-18T08:13:45.605Z,51.58
2018-01-18T08:16:11.982Z,55.86
2018-01-18T08:18:38.375Z,57.24
2018-01-18T08:21:04.707Z,53.38
2018-01-18T08:23:31.100Z,53.34
2018-01-18T08:25:57.477Z,51.45
2018-01-18T08:28:23.877Z,53.40
2018-01-18T08:30:50.248Z,51.69
2018-01-18T08:33:16.730Z,51.46
2018-01-18T08:35:43.097Z,52.70
2018-01-18T08:38:09.491Z,51.90
2018-01-18T08:40:35.836Z,50.71
2018-01-18T08:43:02.216Z,50.60
2018-01-18T08:45:28.680Z,52.74
2018-01-18T08:47:55.013Z,50.84
2018-01-18T08:50:21.485Z,50.96
2018-01-18T08:52:47.849Z,52.31
2018-01-18T08:55:14.380Z,50.09
2018-01-18T08:57:40.814Z,50.76
2018-01-18T09:00:07.181Z,52.75
2018-01-18T09:02:33.612Z,49.81
2018-01-18T09:04:59.945Z,51.18
2018-01-18T09:07:26.337Z,50.16
2018-01-18T09:09:52.672Z,49.66
2018-01-18T09:12:19.013Z,49.00
2018-01-18T09:14:45.373Z,49.47
2018-01-18T09:17:11.709Z,49.65
2018-01-18T09:19:38.029Z,49.00
2018-01-18T09:22:04.380Z,51.04
2018-01-18T09:24:30.736Z,51.54
2018-01-18T09:26:57.114Z,49.13
2018-01-18T09:29:23.464Z,50.68
2018-01-18T09:31:49.851Z,51.39
2018-01-18T09:34:16.241Z,50.63
2018-01-18T09:36:42.572Z,52.97
2018-01-18T09:39:09.133Z,49.16
2018-01-18T09:41:35.496Z,52.21
2018-01-18T09:44:01.824Z,48.13
2018-01-18T09:46:28.213Z,52.22
2018-01-18T09:48:54.637Z,49.84
2018-01-18T09:51:21.037Z,49.96
2018-01-18T09:53:47.426Z,50.43
2018-01-18T09:56:13.753Z,49.73
2018-01-18T09:58:40.134Z,49.54
2018-01-18T10:01:06.630Z,51.08
2018-01-18T10:03:32.964Z,47.98
2018-01-18T10:05:59.301Z,49.43
2018-01-18T10:08:25.763Z,54.08
2018-01-18T10:10:52.235Z,47.41
2018-01-18T10:13:18.598Z,52.53
2018-01-18T10:15:44.972Z,47.49
2018-01-18T10:18:11.372Z,47.24
2018-01-18T10:20:37.786Z,52.44
2018-01-18T10:23:04.192Z,50.73
2018-01-18T10:25:30.688Z,47.95
2018-01-18T10:27:57.096Z,52.20
2018-01-18T10:30:23.481Z,47.21
2018-01-18T10:32:49.876Z,47.18
2018-01-18T10:35:16.256Z,50.23
2018-01-18T10:37:42.633Z,47.74
2018-01-18T10:40:09.045Z,46.96
2018-01-18T10:42:35.413Z,46.75
2018-01-18T10:45:01.837Z,46.89
2018-01-18T10:47:28.372Z,45.85
2018-01-18T10:49:54.703Z,47.54
2018-01-18T10:52:21.037Z,44.70
2018-01-18T10:54:47.369Z,46.35
2018-01-18T10:57:13.740Z,47.99
2018-01-18T10:59:40.141Z,45.38
2018-01-18T11:02:06.492Z,46.25
2018-01-18T11:04:32.864Z,45.14
2018-01-18T11:06:59.352Z,45.81
2018-01-18T11:09:25.693Z,47.07
2018-01-18T11:11:52.069Z,45.51
2018-01-18T11:14:18.432Z,45.98
2018-01-18T11:16:44.784Z,46.05
2018-01-18T11:19:11.290Z,44.17
2018-01-18T11:21:37.728Z,43.61
2018-01-18T11:24:04.060Z,46.31
2018-01-18T11:26:30.457Z,46.77
2018-01-18T11:28:56.885Z,45.00
2018-01-18T11:31:23.300Z,42.63
2018-01-18T11:33:49.678Z,42.90
2018-01-18T11:36:16.165Z,43.60
2018-01-18T11:38:42.596Z,47.50
2018-01-18T11:41:08.917Z,41.83
2018-01-18T11:43:35.248Z,45.65
2018-01-18T11:46:01.674Z,43.36
2018-01-18T11:48:28.057Z,43.48
2018-01-18T11:50:54.420Z,43.57
2018-01-18T11:53:20.833Z,42.34
2018-01-18T11:55:47.153Z,44.11
2018-01-18T11:58:13.490Z,42.64
2018-01-18T12:00:39.882Z,42.64
2018-01-18T12:03:06.246Z,42.57
2018-01-18T12:05:32.576Z,42.08
2018-01-18T13:13:19.881Z,41.87
2018-01-18T13:15:46.253Z,41.00
2018-01-18T13:18:12.632Z,41.88
2018-01-18T13:20:39.076Z,42.47
2018-01-18T13:23:05.408Z,42.54
2018-01-18T13:25:31.868Z,40.93
2018-01-18T13:27:58.221Z,42.13
2018-01-18T13:30:24.589Z,45.08
2018-01-18T13:32:50.984Z,43.17
2018-01-18T13:35:17.369Z,42.07
2018-01-18T13:37:43.712Z,44.54
2018-01-18T13:40:10.118Z,43.45
2018-01-18T13:42:36.644Z,42.64
2018-01-18T13:45:03.001Z,46.13
2018-01-18T13:47:29.356Z,45.03
2018-01-18T13:49:55.734Z,49.06
2018-01-18T13:52:22.233Z,44.49
2018-01-18T13:54:48.589Z,43.20
2018-01-18T13:57:15.068Z,42.62
2018-01-18T13:59:41.444Z,42.77
2018-01-18T14:02:07.837Z,49.63
2018-01-18T14:04:34.177Z,45.93
2018-01-18T14:07:00.601Z,41.94
2018-01-18T14:09:26.957Z,43.22
2018-01-18T14:11:53.453Z,48.31
2018-01-18T14:14:19.883Z,52.88
2018-01-18T14:16:46.272Z,44.76
2018-01-18T14:19:12.609Z,49.99
2018-01-18T14:21:38.976Z,45.39
2018-01-18T14:24:05.312Z,47.00
2018-01-18T14:26:31.664Z,44.09
2018-01-18T14:28:58.061Z,48.76
2018-01-18T14:31:24.447Z,43.25
2018-01-18T14:33:50.817Z,42.87
2018-01-18T14:36:17.209Z,45.50
2018-01-18T14:38:43.560Z,48.04
2018-01-18T14:41:09.961Z,44.73
2018-01-18T14:43:36.552Z,44.99
2018-01-18T14:46:02.941Z,48.58
2018-01-18T14:48:29.297Z,43.84
2018-01-18T14:50:55.724Z,45.37
2018-01-18T14:53:22.057Z,43.42
2018-01-18T14:55:48.384Z,47.32
2018-01-18T14:58:14.784Z,39.42
2018-01-18T15:00:41.130Z,41.69
2018-01-18T15:03:07.480Z,44.44
2018-01-18T15:05:33.872Z,42.71
2018-01-18T15:08:00.225Z,49.06
2018-01-18T15:10:26.608Z,50.06
2018-01-18T15:12:52.973Z,47.98
2018-01-18T15:15:19.440Z,48.46
2018-01-18T15:17:45.785Z,50.16
2018-01-18T15:20:12.138Z,50.07
2018-01-18T15:22:38.592Z,49.98
2018-01-18T15:25:05.013Z,47.02
2018-01-18T15:27:31.349Z,49.04
2018-01-18T15:29:57.676Z,50.73
2018-01-18T15:32:24.166Z,51.07
2018-01-18T15:34:50.501Z,50.10
2018-01-18T15:37:17.008Z,51.25
2018-01-18T15:39:43.396Z,47.73
2018-01-18T15:42:09.736Z,49.73
2018-01-18T15:44:36.089Z,48.58
2018-01-18T15:47:02.811Z,51.67
2018-01-18T15:49:29.223Z,50.06
2018-01-18T15:51:55.589Z,52.27
2018-01-18T15:54:21.956Z,51.14
2018-01-18T15:56:48.292Z,48.60
2018-01-18T15:59:14.651Z,50.41
2018-01-18T16:01:41.040Z,50.62
2018-01-18T16:04:07.458Z,47.82
2018-01-18T16:06:33.963Z,47.95
2018-01-18T16:09:00.341Z,49.33
2018-01-18T16:11:26.713Z,48.06
2018-01-18T16:13:53.052Z,50.18
2018-01-18T16:16:19.401Z,48.04
2018-01-18T16:18:46.041Z,52.12
2018-01-18T16:21:12.619Z,48.15
2018-01-18T16:23:39.205Z,50.11
2018-01-18T16:26:05.738Z,47.81
2018-01-18T16:28:32.364Z,52.52
2018-01-18T16:30:58.720Z,49.45
2018-01-18T16:33:25.133Z,48.05
2018-01-18T16:35:51.516Z,48.40
2018-01-18T16:38:18.068Z,48.41
2018-01-18T16:40:44.438Z,47.78
2018-01-18T16:43:10.861Z,48.74
2018-01-18T16:45:37.245Z,49.28
2018-01-18T16:48:03.605Z,50.77
2018-01-18T16:50:29.940Z,49.26
2018-01-18T16:52:56.333Z,50.06
2018-01-18T16:55:22.692Z,48.93
2018-01-18T16:57:49.077Z,53.68
2018-01-18T17:00:15.560Z,48.66
2018-01-18T17:02:41.888Z,57.31
2018-01-18T17:05:08.301Z,54.59
2018-01-18T17:07:34.653Z,55.42
2018-01-18T17:10:00.980Z,47.87
2018-01-18T17:12:27.368Z,50.41
2018-01-18T17:14:53.725Z,50.35
2018-01-18T17:17:20.048Z,47.59
2018-01-18T17:19:46.371Z,50.90
2018-01-18T17:22:12.762Z,47.13
2018-01-18T17:24:39.380Z,48.02
2018-01-18T17:27:05.713Z,51.50
2018-01-18T17:29:32.077Z,48.57
2018-01-18T17:31:58.576Z,47.15
2018-01-18T17:34:24.974Z,51.55
2018-01-18T17:36:51.472Z,49.01
2018-01-18T17:39:17.907Z,48.04
2018-01-18T17:41:44.253Z,47.82
2018-01-18T17:44:10.676Z,49.65
2018-01-18T17:46:37.203Z,47.97
2018-01-18T17:49:03.588Z,47.14
2018-01-18T17:51:30.006Z,48.33
2018-01-18T17:53:56.338Z,48.08
2018-01-18T17:56:22.664Z,46.68
2018-01-18T17:58:49.036Z,50.63
2018-01-18T18:01:15.381Z,54.52
2018-01-18T18:03:41.707Z,46.04
2018-01-18T18:06:08.048Z,46.80
2018-01-18T18:08:34.380Z,52.18
2018-01-18T18:11:00.752Z,48.23
2018-01-18T18:13:27.116Z,52.66
2018-01-18T18:15:53.452Z,49.84
2018-01-18T18:18:19.829Z,47.84
2018-01-18T18:20:46.172Z,46.40
2018-01-18T18:23:12.557Z,50.37
2018-01-18T18:25:38.942Z,53.31
2018-01-18T18:28:05.380Z,47.01
2018-01-18T18:30:31.874Z,46.00
2018-01-18T18:32:58.200Z,47.02
2018-01-18T18:35:24.565Z,47.64
2018-01-18T18:37:50.925Z,46.75
2018-01-18T18:40:17.404Z,46.34
2018-01-18T18:42:43.758Z,48.86
2018-01-18T18:45:10.170Z,46.91
2018-01-18T18:47:36.498Z,46.77
2018-01-18T18:50:03.036Z,46.09
2018-01-18T18:52:29.364Z,50.16
2018-01-18T18:54:55.854Z,46.56
2018-01-18T18:57:22.226Z,46.33
2018-01-18T18:59:48.566Z,46.54
2018-01-18T19:02:14.930Z,48.39
2018-01-18T19:04:41.304Z,46.82
2018-01-18T19:07:07.633Z,45.62
2018-01-18T19:09:33.969Z,46.37
2018-01-18T19:12:00.349Z,46.37
2018-01-18T19:14:26.685Z,55.96
2018-01-18T19:16:53.028Z,49.16
2018-01-18T19:19:19.505Z,47.21
2018-01-18T19:21:45.847Z,47.37
2018-01-18T19:24:12.190Z,45.10
2018-01-18T19:26:38.589Z,45.75
2018-01-18T19:29:04.929Z,44.73
2018-01-18T19:31:31.257Z,45.76
2018-01-18T19:33:57.681Z,47.43
2018-01-18T19:36:24.245Z,46.05
2018-01-18T19:38:50.617Z,45.36
2018-01-18T19:41:17.051Z,45.94
2018-01-18T19:43:43.397Z,46.59
2018-01-18T19:46:09.710Z,47.03
2018-01-18T19:48:36.101Z,46.44
2018-01-18T19:51:02.426Z,45.42
2018-01-18T19:53:28.741Z,46.39
2018-01-18T19:55:55.092Z,54.59
2018-01-18T19:58:21.461Z,44.91
2018-01-18T20:00:48.815Z,49.31
2018-01-18T20:03:15.380Z,46.38
2018-01-18T20:05:41.748Z,44.24
2018-01-18T20:08:08.109Z,47.47
2018-01-18T20:10:34.474Z,55.52
2018-01-18T20:13:00.853Z,45.28
2018-01-18T20:15:27.204Z,56.03
2018-01-18T20:17:53.549Z,49.75
2018-01-18T20:20:19.889Z,46.79
2018-01-18T20:22:46.237Z,43.50
2018-01-18T20:25:12.580Z,43.13
2018-01-18T20:27:38.913Z,53.41
2018-01-18T20:30:05.303Z,50.96
2018-01-18T20:32:31.633Z,43.61
2018-01-18T20:34:57.976Z,49.52
2018-01-18T20:37:24.355Z,42.40
2018-01-18T20:39:50.672Z,44.57
2018-01-18T20:42:17.029Z,47.01
2018-01-18T20:44:43.460Z,41.97
2018-01-18T20:47:09.925Z,42.18
2018-01-18T20:49:36.365Z,54.99
2018-01-18T20:52:02.832Z,42.55
2018-01-18T20:54:29.216Z,44.67
2018-01-18T20:56:55.600Z,55.28
2018-01-18T20:59:21.977Z,43.02
2018-01-18T21:01:48.301Z,42.95
2018-01-18T21:04:14.640Z,42.04
2018-01-18T21:06:41.172Z,46.15
2018-01-18T21:09:07.509Z,48.72
2018-01-18T21:11:33.840Z,45.32
2018-01-18T21:14:00.230Z,48.39
2018-01-18T21:16:27.612Z,49.73
2018-01-18T21:18:53.965Z,48.42
2018-01-18T21:21:20.305Z,47.96
2018-01-18T21:23:46.636Z,48.20
2018-01-18T21:26:12.999Z,47.39
2018-01-18T21:28:39.377Z,45.99
2018-01-18T21:31:05.836Z,48.65
2018-01-18T21:33:32.192Z,45.40
2018-01-18T21:35:58.681Z,44.93
2018-01-18T21:38:25.046Z,40.78
2018-01-18T21:40:51.486Z,51.51
2018-01-18T21:43:17.862Z,45.34
2018-01-18T21:45:44.247Z,49.07
2018-01-18T21:48:10.637Z,51.17
2018-01-18T21:50:37.045Z,45.43
2018-01-18T21:53:03.360Z,49.30
2018-01-18T21:55:29.762Z,43.19
2018-01-18T21:57:56.149Z,41.64
2018-01-18T22:00:22.556Z,42.01
2018-01-18T22:02:49.956Z,42.69
2018-01-18T22:05:16.285Z,42.26
2018-01-18T22:07:42.664Z,42.35
2018-01-18T22:10:09.024Z,44.14
2018-01-18T22:12:35.512Z,40.96
2018-01-18T22:15:01.886Z,40.30
2018-01-18T22:17:28.208Z,47.63
2018-01-18T22:19:54.585Z,43.97
2018-01-18T22:22:20.925Z,61.55
2018-01-18T22:24:47.305Z,62.10
2018-01-18T22:27:13.681Z,57.24
2018-01-18T22:29:40.008Z,44.96
2018-01-18T22:32:06.410Z,56.91
2018-01-18T22:34:32.764Z,44.63
2018-01-18T22:36:59.112Z,47.05
2018-01-18T22:39:25.544Z,46.33
2018-01-18T22:41:51.956Z,44.60
2018-01-18T22:44:18.297Z,45.60
2018-01-18T22:46:44.636Z,45.67
2018-01-18T22:49:11.021Z,46.14
2018-01-18T22:51:37.349Z,45.91
2018-01-18T22:54:03.741Z,46.63
2018-01-18T22:56:30.104Z,46.79
2018-01-18T22:58:56.436Z,46.78
2018-01-18T23:01:22.765Z,46.44
2018-01-18T23:03:49.145Z,47.67
2018-01-18T23:06:15.489Z,47.83
2018-01-18T23:08:41.882Z,47.91
2018-01-18T23:11:08.237Z,48.12
2018-01-18T23:13:34.569Z,48.15
2018-01-18T23:16:00.928Z,55.85
2018-01-18T23:18:27.252Z,49.58
2018-01-18T23:20:53.580Z,50.28
2018-01-18T23:23:19.984Z,56.79
2018-01-18T23:25:46.377Z,49.71
2018-01-18T23:28:12.725Z,47.54
2018-01-18T23:30:39.109Z,47.40
2018-01-18T23:33:05.452Z,47.80
2018-01-18T23:35:31.829Z,47.39
2018-01-18T23:37:58.249Z,47.13
2018-01-18T23:40:24.636Z,47.30
2018-01-18T23:42:50.964Z,47.59
2018-01-18T23:45:17.361Z,48.09
2018-01-18T23:47:43.757Z,48.10
2018-01-18T23:50:10.153Z,48.61
2018-01-18T23:52:36.524Z,48.98
2018-01-18T23:55:02.902Z,49.14
2018-01-18T23:57:29.237Z,49.71
2018-01-18T23:59:55.580Z,54.79
